Terminal Aerodrome Forecast
Issued by NWS

Home | Current Version | Previous Version | Graphics & Text | Print | Product List | Glossary On
Versions: 1 2 3 4 5 6 7 8 9 10 11 12 13 14 15
000
FTUS43 KGRB 242332
TAFCWA
TAF
KCWA 242332Z 2500/2524 29011G18KT P6SM SCT050 BKN080
      TEMPO 2500/2503 -SHRA BKN050
     FM250300 29009KT P6SM SCT040 BKN070
     FM250600 28005KT P6SM SCT025 BKN040
     FM251200 27004KT P6SM SCT025 BKN030
     FM251500 30007KT P6SM VCSH BKN025=

USA.gov is the U.S. government's official web portal to all federal, state and local government web resources and services.